sensor_id;sensor_type;location;lat;lon;timestamp;P1;durP1;ratioP1;P2;durP2;ratioP2
57395;SDS011;43222;52.912;6.940;2023-06-22T00:00:46;38.03;;;33.63;;
57395;SDS011;43222;52.912;6.940;2023-06-22T00:03:12;36.97;;;33.08;;
57395;SDS011;43222;52.912;6.940;2023-06-22T00:05:38;38.63;;;34.42;;
57395;SDS011;43222;52.912;6.940;2023-06-22T00:08:04;39.30;;;33.08;;
57395;SDS011;43222;52.912;6.940;2023-06-22T00:10:31;35.30;;;31.60;;
57395;SDS011;43222;52.912;6.940;2023-06-22T00:12:57;37.13;;;33.13;;
57395;SDS011;43222;52.912;6.940;2023-06-22T00:15:23;39.33;;;34.53;;
57395;SDS011;43222;52.912;6.940;2023-06-22T00:17:49;39.25;;;34.65;;
57395;SDS011;43222;52.912;6.940;2023-06-22T00:20:15;41.15;;;36.13;;
57395;SDS011;43222;52.912;6.940;2023-06-22T00:22:43;38.80;;;33.33;;
57395;SDS011;43222;52.912;6.940;2023-06-22T00:25:09;38.47;;;34.15;;
57395;SDS011;43222;52.912;6.940;2023-06-22T00:27:36;46.17;;;35.13;;
57395;SDS011;43222;52.912;6.940;2023-06-22T00:30:02;40.72;;;35.83;;
57395;SDS011;43222;52.912;6.940;2023-06-22T00:32:28;39.33;;;35.13;;
57395;SDS011;43222;52.912;6.940;2023-06-22T00:34:54;38.80;;;34.75;;
57395;SDS011;43222;52.912;6.940;2023-06-22T00:37:20;39.45;;;35.42;;
57395;SDS011;43222;52.912;6.940;2023-06-22T00:39:50;39.53;;;35.42;;
57395;SDS011;43222;52.912;6.940;2023-06-22T00:42:17;41.95;;;37.50;;
57395;SDS011;43222;52.912;6.940;2023-06-22T00:44:43;43.20;;;37.40;;
57395;SDS011;43222;52.912;6.940;2023-06-22T00:47:10;40.05;;;35.90;;
57395;SDS011;43222;52.912;6.940;2023-06-22T00:49:38;40.80;;;36.60;;
57395;SDS011;43222;52.912;6.940;2023-06-22T00:52:05;38.80;;;34.58;;
57395;SDS011;43222;52.912;6.940;2023-06-22T00:54:34;37.25;;;33.05;;
57395;SDS011;43222;52.912;6.940;2023-06-22T00:57:01;37.83;;;33.88;;
57395;SDS011;43222;52.912;6.940;2023-06-22T00:59:27;37.83;;;33.97;;
57395;SDS011;43222;52.912;6.940;2023-06-22T01:01:53;39.63;;;35.53;;
57395;SDS011;43222;52.912;6.940;2023-06-22T01:04:26;39.70;;;35.53;;
57395;SDS011;43222;52.912;6.940;2023-06-22T01:07:02;41.00;;;36.65;;
57395;SDS011;43222;52.912;6.940;2023-06-22T01:09:35;39.80;;;35.60;;
57395;SDS011;43222;52.912;6.940;2023-06-22T01:12:04;38.63;;;34.50;;
57395;SDS011;43222;52.912;6.940;2023-06-22T01:14:55;41.30;;;35.53;;
57395;SDS011;43222;52.912;6.940;2023-06-22T01:17:19;39.63;;;35.50;;
57395;SDS011;43222;52.912;6.940;2023-06-22T01:19:46;38.72;;;34.83;;
57395;SDS011;43222;52.912;6.940;2023-06-22T01:22:13;39.58;;;35.38;;
57395;SDS011;43222;52.912;6.940;2023-06-22T01:27:32;42.90;;;38.08;;
57395;SDS011;43222;52.912;6.940;2023-06-22T01:29:59;39.28;;;35.35;;
57395;SDS011;43222;52.912;6.940;2023-06-22T01:32:32;41.05;;;36.65;;
57395;SDS011;43222;52.912;6.940;2023-06-22T01:35:01;41.15;;;36.83;;
57395;SDS011;43222;52.912;6.940;2023-06-22T01:37:29;46.33;;;41.22;;
57395;SDS011;43222;52.912;6.940;2023-06-22T01:39:57;46.80;;;41.83;;
57395;SDS011;43222;52.912;6.940;2023-06-22T01:42:24;46.42;;;41.47;;
57395;SDS011;43222;52.912;6.940;2023-06-22T01:44:51;49.15;;;43.10;;
57395;SDS011;43222;52.912;6.940;2023-06-22T01:47:17;50.75;;;44.20;;
57395;SDS011;43222;52.912;6.940;2023-06-22T01:49:44;46.15;;;41.42;;
57395;SDS011;43222;52.912;6.940;2023-06-22T01:52:10;48.10;;;42.95;;
57395;SDS011;43222;52.912;6.940;2023-06-22T01:54:37;47.10;;;41.95;;
57395;SDS011;43222;52.912;6.940;2023-06-22T01:57:04;45.08;;;40.42;;
57395;SDS011;43222;52.912;6.940;2023-06-22T02:02:11;42.58;;;38.00;;
57395;SDS011;43222;52.912;6.940;2023-06-22T02:07:09;44.78;;;38.25;;
57395;SDS011;43222;52.912;6.940;2023-06-22T02:09:38;42.60;;;37.55;;
57395;SDS011;43222;52.912;6.940;2023-06-22T02:12:04;44.25;;;39.35;;
57395;SDS011;43222;52.912;6.940;2023-06-22T02:14:31;46.20;;;41.28;;
57395;SDS011;43222;52.912;6.940;2023-06-22T02:16:57;36.97;;;33.25;;
57395;SDS011;43222;52.912;6.940;2023-06-22T02:19:26;35.33;;;31.67;;
57395;SDS011;43222;52.912;6.940;2023-06-22T02:21:53;33.58;;;30.08;;
57395;SDS011;43222;52.912;6.940;2023-06-22T02:24:19;37.92;;;33.92;;
57395;SDS011;43222;52.912;6.940;2023-06-22T02:26:48;38.38;;;34.47;;
57395;SDS011;43222;52.912;6.940;2023-06-22T02:29:14;40.58;;;36.13;;
57395;SDS011;43222;52.912;6.940;2023-06-22T02:31:40;38.70;;;34.33;;
57395;SDS011;43222;52.912;6.940;2023-06-22T02:34:06;33.03;;;29.60;;
57395;SDS011;43222;52.912;6.940;2023-06-22T02:36:32;27.80;;;24.98;;
57395;SDS011;43222;52.912;6.940;2023-06-22T02:38:58;31.98;;;28.58;;
57395;SDS011;43222;52.912;6.940;2023-06-22T02:41:26;30.90;;;27.80;;
57395;SDS011;43222;52.912;6.940;2023-06-22T02:43:52;30.77;;;27.65;;
57395;SDS011;43222;52.912;6.940;2023-06-22T02:46:18;30.17;;;27.20;;
57395;SDS011;43222;52.912;6.940;2023-06-22T02:48:44;31.83;;;28.55;;
57395;SDS011;43222;52.912;6.940;2023-06-22T02:51:11;36.33;;;32.50;;
57395;SDS011;43222;52.912;6.940;2023-06-22T02:53:37;40.85;;;36.45;;
57395;SDS011;43222;52.912;6.940;2023-06-22T02:56:03;39.65;;;35.58;;
57395;SDS011;43222;52.912;6.940;2023-06-22T02:58:32;39.75;;;35.70;;
57395;SDS011;43222;52.912;6.940;2023-06-22T03:01:03;40.30;;;35.38;;
57395;SDS011;43222;52.912;6.940;2023-06-22T03:03:30;40.45;;;36.33;;
57395;SDS011;43222;52.912;6.940;2023-06-22T03:05:56;38.83;;;34.75;;
57395;SDS011;43222;52.912;6.940;2023-06-22T03:08:22;35.85;;;32.05;;
57395;SDS011;43222;52.912;6.940;2023-06-22T03:10:48;33.28;;;30.00;;
57395;SDS011;43222;52.912;6.940;2023-06-22T03:13:14;35.58;;;31.88;;
57395;SDS011;43222;52.912;6.940;2023-06-22T03:15:40;31.55;;;28.15;;
57395;SDS011;43222;52.912;6.940;2023-06-22T03:18:06;29.45;;;26.35;;
57395;SDS011;43222;52.912;6.940;2023-06-22T03:20:32;36.38;;;32.63;;
57395;SDS011;43222;52.912;6.940;2023-06-22T03:22:58;32.75;;;29.65;;
57395;SDS011;43222;52.912;6.940;2023-06-22T03:25:25;29.90;;;27.10;;
57395;SDS011;43222;52.912;6.940;2023-06-22T03:27:51;31.33;;;28.33;;
57395;SDS011;43222;52.912;6.940;2023-06-22T03:30:17;44.38;;;28.85;;
57395;SDS011;43222;52.912;6.940;2023-06-22T03:32:43;29.73;;;26.60;;
57395;SDS011;43222;52.912;6.940;2023-06-22T03:35:09;30.10;;;26.80;;
57395;SDS011;43222;52.912;6.940;2023-06-22T03:37:38;25.17;;;22.75;;
57395;SDS011;43222;52.912;6.940;2023-06-22T03:40:04;26.80;;;24.10;;
57395;SDS011;43222;52.912;6.940;2023-06-22T03:42:30;26.52;;;23.90;;
57395;SDS011;43222;52.912;6.940;2023-06-22T03:44:57;26.10;;;23.60;;
57395;SDS011;43222;52.912;6.940;2023-06-22T03:47:23;24.55;;;22.05;;
57395;SDS011;43222;52.912;6.940;2023-06-22T03:49:49;27.40;;;24.73;;
57395;SDS011;43222;52.912;6.940;2023-06-22T03:52:15;25.13;;;22.67;;
57395;SDS011;43222;52.912;6.940;2023-06-22T03:54:41;24.20;;;21.80;;
57395;SDS011;43222;52.912;6.940;2023-06-22T03:57:07;27.40;;;24.48;;
57395;SDS011;43222;52.912;6.940;2023-06-22T03:59:33;31.70;;;28.38;;
57395;SDS011;43222;52.912;6.940;2023-06-22T04:01:59;38.63;;;34.63;;
57395;SDS011;43222;52.912;6.940;2023-06-22T04:04:25;39.08;;;35.10;;
57395;SDS011;43222;52.912;6.940;2023-06-22T04:06:52;38.88;;;34.67;;
57395;SDS011;43222;52.912;6.940;2023-06-22T04:09:18;41.40;;;36.92;;
57395;SDS011;43222;52.912;6.940;2023-06-22T04:11:46;36.38;;;32.72;;
57395;SDS011;43222;52.912;6.940;2023-06-22T04:14:12;41.42;;;37.03;;
57395;SDS011;43222;52.912;6.940;2023-06-22T04:16:38;41.08;;;36.53;;
57395;SDS011;43222;52.912;6.940;2023-06-22T04:19:04;39.70;;;35.42;;
57395;SDS011;43222;52.912;6.940;2023-06-22T04:21:31;37.92;;;33.78;;
57395;SDS011;43222;52.912;6.940;2023-06-22T04:23:58;47.67;;;38.63;;
57395;SDS011;43222;52.912;6.940;2023-06-22T04:26:24;43.42;;;38.83;;
57395;SDS011;43222;52.912;6.940;2023-06-22T04:28:50;41.05;;;36.60;;
57395;SDS011;43222;52.912;6.940;2023-06-22T04:31:20;45.45;;;40.80;;
57395;SDS011;43222;52.912;6.940;2023-06-22T04:33:47;47.30;;;42.13;;
57395;SDS011;43222;52.912;6.940;2023-06-22T04:36:13;48.97;;;44.00;;
57395;SDS011;43222;52.912;6.940;2023-06-22T04:38:39;52.47;;;46.75;;
57395;SDS011;43222;52.912;6.940;2023-06-22T04:41:05;55.00;;;46.22;;
57395;SDS011;43222;52.912;6.940;2023-06-22T04:43:33;52.60;;;46.90;;
57395;SDS011;43222;52.912;6.940;2023-06-22T04:45:59;52.03;;;46.63;;
57395;SDS011;43222;52.912;6.940;2023-06-22T04:48:29;53.58;;;47.88;;
57395;SDS011;43222;52.912;6.940;2023-06-22T04:50:58;51.58;;;46.25;;
57395;SDS011;43222;52.912;6.940;2023-06-22T04:53:28;51.28;;;45.97;;
57395;SDS011;43222;52.912;6.940;2023-06-22T04:55:55;50.13;;;44.83;;
57395;SDS011;43222;52.912;6.940;2023-06-22T04:58:21;48.85;;;43.75;;
57395;SDS011;43222;52.912;6.940;2023-06-22T05:00:47;49.35;;;43.97;;
57395;SDS011;43222;52.912;6.940;2023-06-22T05:03:16;49.13;;;43.88;;
57395;SDS011;43222;52.912;6.940;2023-06-22T05:05:43;47.80;;;42.72;;
57395;SDS011;43222;52.912;6.940;2023-06-22T05:08:09;46.60;;;41.80;;
57395;SDS011;43222;52.912;6.940;2023-06-22T05:10:35;49.47;;;44.05;;
57395;SDS011;43222;52.912;6.940;2023-06-22T05:13:01;49.25;;;43.95;;
57395;SDS011;43222;52.912;6.940;2023-06-22T05:15:27;46.72;;;41.72;;
57395;SDS011;43222;52.912;6.940;2023-06-22T05:17:55;48.08;;;43.08;;
57395;SDS011;43222;52.912;6.940;2023-06-22T05:20:23;49.20;;;44.00;;
57395;SDS011;43222;52.912;6.940;2023-06-22T05:22:49;46.85;;;41.90;;
57395;SDS011;43222;52.912;6.940;2023-06-22T05:25:15;52.33;;;45.75;;
57395;SDS011;43222;52.912;6.940;2023-06-22T05:27:41;49.20;;;43.40;;
57395;SDS011;43222;52.912;6.940;2023-06-22T05:30:09;45.55;;;40.58;;
57395;SDS011;43222;52.912;6.940;2023-06-22T05:32:36;46.13;;;40.20;;
57395;SDS011;43222;52.912;6.940;2023-06-22T05:35:03;42.42;;;38.03;;
57395;SDS011;43222;52.912;6.940;2023-06-22T05:37:29;42.53;;;38.13;;
57395;SDS011;43222;52.912;6.940;2023-06-22T05:39:55;41.22;;;36.92;;
57395;SDS011;43222;52.912;6.940;2023-06-22T05:42:22;40.10;;;36.00;;
57395;SDS011;43222;52.912;6.940;2023-06-22T05:44:50;37.92;;;34.15;;
57395;SDS011;43222;52.912;6.940;2023-06-22T05:47:16;38.42;;;34.63;;
57395;SDS011;43222;52.912;6.940;2023-06-22T05:49:42;37.08;;;33.38;;
57395;SDS011;43222;52.912;6.940;2023-06-22T05:52:08;35.20;;;31.70;;
57395;SDS011;43222;52.912;6.940;2023-06-22T05:54:34;35.90;;;32.33;;
57395;SDS011;43222;52.912;6.940;2023-06-22T05:57:01;35.15;;;31.60;;
57395;SDS011;43222;52.912;6.940;2023-06-22T05:59:27;34.40;;;30.90;;
57395;SDS011;43222;52.912;6.940;2023-06-22T06:01:53;32.88;;;29.58;;
57395;SDS011;43222;52.912;6.940;2023-06-22T06:04:19;32.33;;;29.02;;
57395;SDS011;43222;52.912;6.940;2023-06-22T06:06:45;32.35;;;29.00;;
57395;SDS011;43222;52.912;6.940;2023-06-22T06:09:12;31.73;;;28.48;;
57395;SDS011;43222;52.912;6.940;2023-06-22T06:11:38;30.35;;;27.27;;
57395;SDS011;43222;52.912;6.940;2023-06-22T06:14:04;29.50;;;26.42;;
57395;SDS011;43222;52.912;6.940;2023-06-22T06:16:31;29.17;;;26.30;;
57395;SDS011;43222;52.912;6.940;2023-06-22T06:18:57;29.05;;;26.25;;
57395;SDS011;43222;52.912;6.940;2023-06-22T06:21:23;28.83;;;25.90;;
57395;SDS011;43222;52.912;6.940;2023-06-22T06:23:49;27.95;;;25.23;;
57395;SDS011;43222;52.912;6.940;2023-06-22T06:26:16;26.50;;;23.98;;
57395;SDS011;43222;52.912;6.940;2023-06-22T06:28:45;25.35;;;22.75;;
57395;SDS011;43222;52.912;6.940;2023-06-22T06:31:11;23.38;;;21.00;;
57395;SDS011;43222;52.912;6.940;2023-06-22T06:33:42;22.55;;;20.45;;
57395;SDS011;43222;52.912;6.940;2023-06-22T06:36:08;21.23;;;19.13;;
57395;SDS011;43222;52.912;6.940;2023-06-22T06:38:34;20.70;;;18.77;;
57395;SDS011;43222;52.912;6.940;2023-06-22T06:41:00;21.45;;;19.45;;
57395;SDS011;43222;52.912;6.940;2023-06-22T06:43:26;20.25;;;18.35;;
57395;SDS011;43222;52.912;6.940;2023-06-22T06:45:52;19.85;;;17.92;;
57395;SDS011;43222;52.912;6.940;2023-06-22T06:48:18;18.35;;;16.55;;
57395;SDS011;43222;52.912;6.940;2023-06-22T06:50:44;19.25;;;16.70;;
57395;SDS011;43222;52.912;6.940;2023-06-22T06:53:10;17.33;;;15.60;;
57395;SDS011;43222;52.912;6.940;2023-06-22T06:55:36;18.75;;;16.85;;
57395;SDS011;43222;52.912;6.940;2023-06-22T06:58:03;15.82;;;14.30;;
57395;SDS011;43222;52.912;6.940;2023-06-22T07:00:32;17.52;;;15.88;;
57395;SDS011;43222;52.912;6.940;2023-06-22T07:02:58;16.17;;;14.48;;
57395;SDS011;43222;52.912;6.940;2023-06-22T07:05:24;15.82;;;14.25;;
57395;SDS011;43222;52.912;6.940;2023-06-22T07:07:51;16.15;;;14.40;;
57395;SDS011;43222;52.912;6.940;2023-06-22T07:10:18;17.65;;;14.63;;
57395;SDS011;43222;52.912;6.940;2023-06-22T07:12:44;14.85;;;13.35;;
57395;SDS011;43222;52.912;6.940;2023-06-22T07:15:10;20.63;;;12.15;;
57395;SDS011;43222;52.912;6.940;2023-06-22T07:17:37;17.52;;;13.00;;
57395;SDS011;43222;52.912;6.940;2023-06-22T07:20:07;13.43;;;12.02;;
57395;SDS011;43222;52.912;6.940;2023-06-22T07:22:37;13.25;;;11.88;;
57395;SDS011;43222;52.912;6.940;2023-06-22T07:25:03;13.90;;;12.50;;
57395;SDS011;43222;52.912;6.940;2023-06-22T07:27:34;21.63;;;12.43;;
57395;SDS011;43222;52.912;6.940;2023-06-22T07:30:03;16.58;;;12.77;;
57395;SDS011;43222;52.912;6.940;2023-06-22T07:32:29;17.30;;;11.20;;
57395;SDS011;43222;52.912;6.940;2023-06-22T07:34:55;13.65;;;11.52;;
57395;SDS011;43222;52.912;6.940;2023-06-22T07:37:21;19.50;;;10.65;;
57395;SDS011;43222;52.912;6.940;2023-06-22T07:39:47;16.15;;;10.85;;
57395;SDS011;43222;52.912;6.940;2023-06-22T07:42:15;14.02;;;11.45;;
57395;SDS011;43222;52.912;6.940;2023-06-22T07:44:43;20.48;;;10.60;;
57395;SDS011;43222;52.912;6.940;2023-06-22T07:47:10;14.18;;;11.20;;
57395;SDS011;43222;52.912;6.940;2023-06-22T07:49:36;17.30;;;10.38;;
57395;SDS011;43222;52.912;6.940;2023-06-22T07:52:02;21.10;;;10.77;;
57395;SDS011;43222;52.912;6.940;2023-06-22T07:54:28;17.42;;;9.05;;
57395;SDS011;43222;52.912;6.940;2023-06-22T07:56:54;11.38;;;9.73;;
57395;SDS011;43222;52.912;6.940;2023-06-22T07:59:20;11.20;;;9.30;;
57395;SDS011;43222;52.912;6.940;2023-06-22T08:01:46;10.18;;;8.65;;
57395;SDS011;43222;52.912;6.940;2023-06-22T08:04:14;9.57;;;8.27;;
57395;SDS011;43222;52.912;6.940;2023-06-22T08:06:40;11.60;;;9.07;;
57395;SDS011;43222;52.912;6.940;2023-06-22T08:09:07;14.30;;;8.88;;
57395;SDS011;43222;52.912;6.940;2023-06-22T08:11:33;11.50;;;7.85;;
57395;SDS011;43222;52.912;6.940;2023-06-22T08:14:00;13.95;;;8.55;;
57395;SDS011;43222;52.912;6.940;2023-06-22T08:16:26;12.45;;;9.65;;
57395;SDS011;43222;52.912;6.940;2023-06-22T08:18:53;14.38;;;8.90;;
57395;SDS011;43222;52.912;6.940;2023-06-22T08:21:19;23.23;;;8.57;;
57395;SDS011;43222;52.912;6.940;2023-06-22T08:23:45;26.65;;;9.30;;
57395;SDS011;43222;52.912;6.940;2023-06-22T08:26:11;13.77;;;10.25;;
57395;SDS011;43222;52.912;6.940;2023-06-22T08:28:38;10.35;;;8.23;;
57395;SDS011;43222;52.912;6.940;2023-06-22T08:31:04;21.85;;;10.00;;
57395;SDS011;43222;52.912;6.940;2023-06-22T08:33:30;16.60;;;9.85;;
57395;SDS011;43222;52.912;6.940;2023-06-22T08:35:57;18.50;;;8.77;;
57395;SDS011;43222;52.912;6.940;2023-06-22T08:38:24;11.20;;;9.18;;
57395;SDS011;43222;52.912;6.940;2023-06-22T08:40:50;12.18;;;9.15;;
57395;SDS011;43222;52.912;6.940;2023-06-22T08:43:16;12.10;;;9.73;;
57395;SDS011;43222;52.912;6.940;2023-06-22T08:45:42;13.10;;;9.65;;
57395;SDS011;43222;52.912;6.940;2023-06-22T08:48:08;13.30;;;10.65;;
57395;SDS011;43222;52.912;6.940;2023-06-22T08:50:34;11.35;;;9.57;;
57395;SDS011;43222;52.912;6.940;2023-06-22T08:53:00;11.75;;;9.95;;
57395;SDS011;43222;52.912;6.940;2023-06-22T08:55:26;12.13;;;9.50;;
57395;SDS011;43222;52.912;6.940;2023-06-22T08:57:52;12.05;;;10.00;;
57395;SDS011;43222;52.912;6.940;2023-06-22T09:00:18;13.40;;;9.07;;
57395;SDS011;43222;52.912;6.940;2023-06-22T09:02:45;17.40;;;10.40;;
57395;SDS011;43222;52.912;6.940;2023-06-22T09:05:12;13.77;;;10.35;;
57395;SDS011;43222;52.912;6.940;2023-06-22T09:07:38;12.52;;;10.13;;
57395;SDS011;43222;52.912;6.940;2023-06-22T09:10:04;46.97;;;12.45;;
57395;SDS011;43222;52.912;6.940;2023-06-22T09:12:31;24.10;;;11.13;;
57395;SDS011;43222;52.912;6.940;2023-06-22T09:14:57;26.05;;;10.82;;
57395;SDS011;43222;52.912;6.940;2023-06-22T09:17:25;17.85;;;10.48;;
57395;SDS011;43222;52.912;6.940;2023-06-22T09:19:51;42.90;;;11.95;;
57395;SDS011;43222;52.912;6.940;2023-06-22T09:22:17;16.23;;;10.75;;
57395;SDS011;43222;52.912;6.940;2023-06-22T09:24:43;14.02;;;10.63;;
57395;SDS011;43222;52.912;6.940;2023-06-22T09:27:09;11.38;;;9.82;;
57395;SDS011;43222;52.912;6.940;2023-06-22T09:29:35;13.88;;;9.77;;
57395;SDS011;43222;52.912;6.940;2023-06-22T09:32:02;17.80;;;9.80;;
57395;SDS011;43222;52.912;6.940;2023-06-22T09:34:28;16.90;;;11.75;;
57395;SDS011;43222;52.912;6.940;2023-06-22T09:36:56;14.85;;;10.85;;
57395;SDS011;43222;52.912;6.940;2023-06-22T09:39:25;22.65;;;11.02;;
57395;SDS011;43222;52.912;6.940;2023-06-22T09:41:51;14.75;;;11.50;;
57395;SDS011;43222;52.912;6.940;2023-06-22T09:44:18;14.70;;;11.10;;
57395;SDS011;43222;52.912;6.940;2023-06-22T09:46:44;16.20;;;12.35;;
57395;SDS011;43222;52.912;6.940;2023-06-22T09:49:10;15.90;;;10.77;;
57395;SDS011;43222;52.912;6.940;2023-06-22T09:51:36;37.35;;;11.45;;
57395;SDS011;43222;52.912;6.940;2023-06-22T09:54:02;16.83;;;10.93;;
57395;SDS011;43222;52.912;6.940;2023-06-22T09:56:28;14.82;;;10.80;;
57395;SDS011;43222;52.912;6.940;2023-06-22T09:58:55;13.95;;;11.30;;
57395;SDS011;43222;52.912;6.940;2023-06-22T10:01:21;13.57;;;11.20;;
57395;SDS011;43222;52.912;6.940;2023-06-22T10:03:48;15.90;;;10.45;;
57395;SDS011;43222;52.912;6.940;2023-06-22T10:06:14;13.77;;;11.15;;
57395;SDS011;43222;52.912;6.940;2023-06-22T10:08:41;18.90;;;11.32;;
57395;SDS011;43222;52.912;6.940;2023-06-22T10:11:10;18.55;;;12.43;;
57395;SDS011;43222;52.912;6.940;2023-06-22T10:13:36;12.48;;;10.98;;
57395;SDS011;43222;52.912;6.940;2023-06-22T10:16:02;26.70;;;12.00;;
57395;SDS011;43222;52.912;6.940;2023-06-22T10:18:28;66.70;;;13.90;;
57395;SDS011;43222;52.912;6.940;2023-06-22T10:20:55;18.17;;;11.70;;
57395;SDS011;43222;52.912;6.940;2023-06-22T10:23:22;15.82;;;12.05;;
57395;SDS011;43222;52.912;6.940;2023-06-22T10:25:48;14.38;;;11.82;;
57395;SDS011;43222;52.912;6.940;2023-06-22T10:28:14;15.70;;;12.02;;
57395;SDS011;43222;52.912;6.940;2023-06-22T10:30:41;17.20;;;12.27;;
57395;SDS011;43222;52.912;6.940;2023-06-22T10:33:10;15.18;;;12.40;;
57395;SDS011;43222;52.912;6.940;2023-06-22T10:35:37;13.48;;;11.95;;
57395;SDS011;43222;52.912;6.940;2023-06-22T10:38:03;16.88;;;11.40;;
57395;SDS011;43222;52.912;6.940;2023-06-22T10:40:29;15.35;;;13.20;;
57395;SDS011;43222;52.912;6.940;2023-06-22T10:42:56;13.80;;;11.02;;
57395;SDS011;43222;52.912;6.940;2023-06-22T10:45:22;13.80;;;10.55;;
57395;SDS011;43222;52.912;6.940;2023-06-22T10:47:48;15.60;;;11.30;;
57395;SDS011;43222;52.912;6.940;2023-06-22T10:50:14;13.65;;;11.68;;
57395;SDS011;43222;52.912;6.940;2023-06-22T10:52:41;17.98;;;13.30;;
57395;SDS011;43222;52.912;6.940;2023-06-22T10:57:56;14.75;;;10.43;;
57395;SDS011;43222;52.912;6.940;2023-06-22T11:06:39;14.95;;;11.70;;
57395;SDS011;43222;52.912;6.940;2023-06-22T11:09:13;15.25;;;11.18;;
57395;SDS011;43222;52.912;6.940;2023-06-22T11:12:02;16.42;;;11.38;;
57395;SDS011;43222;52.912;6.940;2023-06-22T11:17:35;15.88;;;12.45;;
57395;SDS011;43222;52.912;6.940;2023-06-22T11:20:24;13.60;;;9.57;;
57395;SDS011;43222;52.912;6.940;2023-06-22T11:23:19;14.15;;;10.73;;
57395;SDS011;43222;52.912;6.940;2023-06-22T11:25:54;12.15;;;10.68;;
57395;SDS011;43222;52.912;6.940;2023-06-22T11:28:20;12.50;;;10.52;;
57395;SDS011;43222;52.912;6.940;2023-06-22T11:30:46;14.52;;;10.43;;
57395;SDS011;43222;52.912;6.940;2023-06-22T11:33:12;11.63;;;8.98;;
57395;SDS011;43222;52.912;6.940;2023-06-22T11:35:41;13.57;;;10.50;;
57395;SDS011;43222;52.912;6.940;2023-06-22T11:38:07;13.43;;;10.13;;
57395;SDS011;43222;52.912;6.940;2023-06-22T11:40:33;11.32;;;9.32;;
57395;SDS011;43222;52.912;6.940;2023-06-22T11:42:59;12.75;;;10.48;;
57395;SDS011;43222;52.912;6.940;2023-06-22T11:45:26;12.65;;;9.35;;
57395;SDS011;43222;52.912;6.940;2023-06-22T11:47:55;12.10;;;10.18;;
57395;SDS011;43222;52.912;6.940;2023-06-22T11:50:21;12.63;;;10.52;;
57395;SDS011;43222;52.912;6.940;2023-06-22T11:52:47;14.10;;;9.90;;
57395;SDS011;43222;52.912;6.940;2023-06-22T11:55:13;11.30;;;9.07;;
57395;SDS011;43222;52.912;6.940;2023-06-22T11:57:51;20.30;;;8.45;;
57395;SDS011;43222;52.912;6.940;2023-06-22T12:00:18;10.50;;;8.45;;
57395;SDS011;43222;52.912;6.940;2023-06-22T12:02:44;12.07;;;9.02;;
57395;SDS011;43222;52.912;6.940;2023-06-22T12:05:10;10.27;;;7.63;;
57395;SDS011;43222;52.912;6.940;2023-06-22T12:07:37;9.88;;;6.43;;
57395;SDS011;43222;52.912;6.940;2023-06-22T12:10:03;10.07;;;8.45;;
57395;SDS011;43222;52.912;6.940;2023-06-22T12:12:33;13.93;;;9.07;;
57395;SDS011;43222;52.912;6.940;2023-06-22T12:15:09;11.73;;;8.32;;
57395;SDS011;43222;52.912;6.940;2023-06-22T12:17:37;9.80;;;7.07;;
57395;SDS011;43222;52.912;6.940;2023-06-22T12:20:48;8.55;;;6.78;;
57395;SDS011;43222;52.912;6.940;2023-06-22T12:26:26;10.13;;;8.27;;
57395;SDS011;43222;52.912;6.940;2023-06-22T12:29:16;10.68;;;7.90;;
57395;SDS011;43222;52.912;6.940;2023-06-22T12:34:31;10.50;;;8.25;;
57395;SDS011;43222;52.912;6.940;2023-06-22T12:43:05;11.43;;;7.10;;
57395;SDS011;43222;52.912;6.940;2023-06-22T12:45:55;11.50;;;7.72;;
57395;SDS011;43222;52.912;6.940;2023-06-22T12:48:46;10.02;;;7.20;;
57395;SDS011;43222;52.912;6.940;2023-06-22T12:51:27;10.50;;;6.28;;
57395;SDS011;43222;52.912;6.940;2023-06-22T12:54:11;8.90;;;5.88;;
57395;SDS011;43222;52.912;6.940;2023-06-22T12:56:57;9.18;;;6.72;;
57395;SDS011;43222;52.912;6.940;2023-06-22T13:00:03;11.68;;;6.65;;
57395;SDS011;43222;52.912;6.940;2023-06-22T13:02:39;9.30;;;6.80;;
57395;SDS011;43222;52.912;6.940;2023-06-22T13:05:14;9.55;;;6.40;;
57395;SDS011;43222;52.912;6.940;2023-06-22T13:07:45;11.70;;;7.78;;
57395;SDS011;43222;52.912;6.940;2023-06-22T13:10:11;9.80;;;6.47;;
57395;SDS011;43222;52.912;6.940;2023-06-22T13:12:40;8.98;;;6.35;;
57395;SDS011;43222;52.912;6.940;2023-06-22T13:15:09;9.80;;;6.18;;
57395;SDS011;43222;52.912;6.940;2023-06-22T13:17:37;10.15;;;6.60;;
57395;SDS011;43222;52.912;6.940;2023-06-22T13:20:03;8.05;;;6.32;;
57395;SDS011;43222;52.912;6.940;2023-06-22T13:22:57;11.93;;;6.80;;
57395;SDS011;43222;52.912;6.940;2023-06-22T13:25:33;9.48;;;5.93;;
57395;SDS011;43222;52.912;6.940;2023-06-22T13:28:09;9.95;;;6.57;;
57395;SDS011;43222;52.912;6.940;2023-06-22T13:30:38;9.88;;;6.18;;
57395;SDS011;43222;52.912;6.940;2023-06-22T13:33:15;9.27;;;6.32;;
57395;SDS011;43222;52.912;6.940;2023-06-22T13:35:50;9.75;;;6.15;;
57395;SDS011;43222;52.912;6.940;2023-06-22T13:38:19;13.77;;;5.70;;
57395;SDS011;43222;52.912;6.940;2023-06-22T13:40:55;15.30;;;6.20;;
57395;SDS011;43222;52.912;6.940;2023-06-22T13:43:23;9.50;;;5.57;;
57395;SDS011;43222;52.912;6.940;2023-06-22T13:46:05;8.13;;;6.00;;
57395;SDS011;43222;52.912;6.940;2023-06-22T13:48:52;8.52;;;5.88;;
57395;SDS011;43222;52.912;6.940;2023-06-22T13:51:18;11.48;;;5.72;;
57395;SDS011;43222;52.912;6.940;2023-06-22T13:53:44;8.45;;;5.70;;
57395;SDS011;43222;52.912;6.940;2023-06-22T13:56:10;9.35;;;6.05;;
57395;SDS011;43222;52.912;6.940;2023-06-22T13:58:39;8.45;;;5.70;;
57395;SDS011;43222;52.912;6.940;2023-06-22T14:01:05;8.32;;;6.07;;
57395;SDS011;43222;52.912;6.940;2023-06-22T14:03:31;12.50;;;5.85;;
57395;SDS011;43222;52.912;6.940;2023-06-22T14:05:57;10.15;;;6.30;;
57395;SDS011;43222;52.912;6.940;2023-06-22T14:08:24;10.13;;;6.00;;
57395;SDS011;43222;52.912;6.940;2023-06-22T14:10:50;8.50;;;6.55;;
57395;SDS011;43222;52.912;6.940;2023-06-22T14:13:23;10.52;;;6.35;;
57395;SDS011;43222;52.912;6.940;2023-06-22T14:15:49;8.95;;;6.72;;
57395;SDS011;43222;52.912;6.940;2023-06-22T14:18:17;9.38;;;6.32;;
57395;SDS011;43222;52.912;6.940;2023-06-22T14:20:43;9.23;;;6.95;;
57395;SDS011;43222;52.912;6.940;2023-06-22T14:23:09;8.35;;;6.28;;
57395;SDS011;43222;52.912;6.940;2023-06-22T14:25:35;11.18;;;6.72;;
57395;SDS011;43222;52.912;6.940;2023-06-22T14:28:02;10.93;;;6.63;;
57395;SDS011;43222;52.912;6.940;2023-06-22T14:30:28;10.40;;;7.65;;
57395;SDS011;43222;52.912;6.940;2023-06-22T14:32:54;11.10;;;7.32;;
57395;SDS011;43222;52.912;6.940;2023-06-22T14:35:20;8.98;;;6.90;;
57395;SDS011;43222;52.912;6.940;2023-06-22T14:37:46;9.55;;;6.00;;
57395;SDS011;43222;52.912;6.940;2023-06-22T14:40:14;10.38;;;6.35;;
57395;SDS011;43222;52.912;6.940;2023-06-22T14:42:40;10.43;;;6.63;;
57395;SDS011;43222;52.912;6.940;2023-06-22T14:45:06;11.60;;;6.63;;
57395;SDS011;43222;52.912;6.940;2023-06-22T14:47:33;10.93;;;7.38;;
57395;SDS011;43222;52.912;6.940;2023-06-22T14:50:02;12.07;;;8.45;;
57395;SDS011;43222;52.912;6.940;2023-06-22T14:52:31;14.05;;;8.23;;
57395;SDS011;43222;52.912;6.940;2023-06-22T14:54:57;14.40;;;9.38;;
57395;SDS011;43222;52.912;6.940;2023-06-22T14:57:23;13.18;;;9.02;;
57395;SDS011;43222;52.912;6.940;2023-06-22T14:59:52;12.48;;;9.80;;
57395;SDS011;43222;52.912;6.940;2023-06-22T15:02:18;15.10;;;11.05;;